This is the latest recevied weather packets stored in our database for station/object WB0RXX. If no packets are shown the sender has not sent any weather packets the latest 10 day(s).
| Time | Temp. | Humidity | Pressure | Rain* | Wind** | Luminosity | Snow |
|---|---|---|---|---|---|---|---|
| 1777784407 | 15° C | 44% | 1006.6 hPa | 0 mm | - | - | - |
| 1777783804 | 15.56° C | 45% | 1006.7 hPa | 0 mm | - | - | - |
| 1777783205 | 15.56° C | 43% | 1006.7 hPa | 0 mm | - | - | - |
| 1777782603 | 16.11° C | 42% | 1006.8 hPa | 0 mm | - | - | - |
| 1777782005 | 16.67° C | 43% | 1006.8 hPa | 0 mm | - | - | - |
| 1777781404 | 16.67° C | 43% | 1006.9 hPa | 0 mm | - | - | - |
| 1777780819 | 16.11° C | 46% | 1007 hPa | 0 mm | - | - | - |
| 1777780203 | 16.11° C | 47% | 1007.1 hPa | 0 mm | - | - | - |
| 1777779604 | 16.67° C | 49% | 1007.3 hPa | 0 mm | - | - | - |
| 1777779003 | 17.78° C | 38% | 1007.7 hPa | 0 mm | - | - | - |
| 1777778403 | 17.78° C | 38% | 1007.6 hPa | 0 mm | - | - | - |
| 1777777803 | 17.78° C | 38% | 1007.6 hPa | 0 mm | - | - | - |
| 1777777203 | 17.78° C | 40% | 1007.8 hPa | 0 mm | - | - | - |
| 1777776604 | 17.78° C | 37% | 1008 hPa | 0 mm | - | - | - |
| 1777776003 | 17.78° C | 37% | 1007.9 hPa | 0 mm | - | - | - |
| 1777775402 | 17.78° C | 36% | 1008 hPa | 0 mm | - | - | - |
| 1777774803 | 17.78° C | 35% | 1008.2 hPa | 0 mm | - | - | - |
| 1777774220 | 17.78° C | 33% | 1008.8 hPa | 0 mm | - | - | - |
| 1777773620 | 17.78° C | 34% | 1008.7 hPa | 0 mm | - | - | - |
| 1777773003 | 17.78° C | 34% | 1008.8 hPa | 0 mm | - | - | - |
| 1777772419 | 17.78° C | 36% | 1008.8 hPa | 0 mm | - | - | - |
| 1777771804 | 18.33° C | 32% | 1008.8 hPa | 0 mm | - | - | - |
| 1777771204 | 18.33° C | 34% | 1008.8 hPa | 0 mm | - | - | - |
| 1777770605 | 18.89° C | 33% | 1008.5 hPa | 0 mm | - | - | - |
| 1777770002 | 18.89° C | 32% | 1008.6 hPa | 0 mm | - | - | - |
* Rain latest hour (hover to see other rain measurements)
** Current wind speed in m/s (hover to see current wind gust speed)